Time;durP1;ratioP1;P1;durP2;ratioP2;P2;SDS_P1;SDS_P2;PMS_P1;PMS_P2;Temp;Humidity;BMP_temperature;BMP_pressure;BME280_temperature;BME280_humidity;BME280_pressure;Samples;Min_cycle;Max_cycle;Signal;HPM_P1;HPM_P2
2022/01/11 00:01:20;;;;;;;22.23;11.85;;;;;;;-0.69;92.16;98577.09;5025284;28;20735;-59
2022/01/11 00:03:47;;;;;;;20.92;10.23;;;;;;;-0.45;91.75;98578.31;5024992;28;20049;-57
2022/01/11 00:06:28;;;;;;;23.85;10.77;;;;;;;-0.44;90.95;98577.31;5024514;28;20046;-59
2022/01/11 00:09:00;;;;;;;20.80;12.07;;;;;;;-0.30;90.52;98583.09;5025766;28;20063;-59
2022/01/11 00:11:27;;;;;;;21.83;11.32;;;;;;;-0.42;91.00;98580.69;5025237;28;20509;-58
2022/01/11 00:13:54;;;;;;;22.15;12.65;;;;;;;-0.63;91.45;98582.78;5025262;28;20080;-59
2022/01/11 00:16:21;;;;;;;28.75;12.77;;;;;;;-0.66;93.28;98576.75;5025700;28;20121;-59
2022/01/11 00:18:47;;;;;;;22.85;11.82;;;;;;;-0.61;92.74;98573.66;5025012;28;20041;-59
2022/01/11 00:21:14;;;;;;;25.10;12.68;;;;;;;-0.69;91.94;98581.56;5025182;28;20045;-59
2022/01/11 00:26:07;;;;;;;24.10;12.32;;;;;;;-0.79;92.92;98579.81;5026645;28;20782;-60
2022/01/11 00:28:34;;;;;;;23.30;12.48;;;;;;;-0.75;92.33;98582.13;5029257;28;20045;-60
2022/01/11 00:31:23;;;;;;;25.42;11.73;;;;;;;-0.77;92.92;98579.66;5028915;28;20053;-60
2022/01/11 00:33:51;;;;;;;26.60;12.77;;;;;;;-0.80;92.29;98578.09;5011404;28;20049;-59
2022/01/11 00:36:18;;;;;;;27.83;14.23;;;;;;;-0.75;92.49;98579.47;5027280;28;20045;-59
2022/01/11 00:38:45;;;;;;;23.20;11.75;;;;;;;-0.80;92.59;98580.75;5026942;28;20068;-59
2022/01/11 00:41:13;;;;;;;23.38;11.88;;;;;;;-0.79;93.50;98582.47;5029140;28;20050;-57
2022/01/11 00:43:41;;;;;;;24.33;12.52;;;;;;;-0.76;93.88;98583.97;5026695;28;20037;-59
2022/01/11 00:46:10;;;;;;;24.42;12.90;;;;;;;-0.82;93.24;98577.44;5028539;28;20499;-61
2022/01/11 00:48:39;;;;;;;25.58;13.23;;;;;;;-0.72;93.31;98582.69;5028814;28;20048;-59
2022/01/11 00:51:09;;;;;;;24.88;13.00;;;;;;;-0.69;92.42;98582.41;5027074;28;20567;-59
2022/01/11 00:53:35;;;;;;;29.38;12.85;;;;;;;-0.60;92.64;98574.50;5028387;28;20055;-60
2022/01/11 00:56:02;;;;;;;23.67;11.98;;;;;;;-0.53;92.39;98581.72;5026864;28;20044;-60
2022/01/11 00:58:31;;;;;;;20.48;11.02;;;;;;;-0.49;92.96;98581.41;5028525;28;20069;-60
2022/01/11 01:00:57;;;;;;;21.55;10.93;;;;;;;-0.55;92.25;98574.91;5028119;28;20053;-60
2022/01/11 01:03:25;;;;;;;20.40;10.52;;;;;;;-0.45;93.22;98575.66;5028460;28;20117;-60
2022/01/11 01:05:53;;;;;;;22.23;12.38;;;;;;;-0.51;92.46;98583.41;5028112;28;20050;-60
2022/01/11 01:08:21;;;;;;;24.00;11.10;;;;;;;-0.54;92.19;98579.22;5026634;28;20041;-60
2022/01/11 01:10:48;;;;;;;21.90;12.07;;;;;;;-0.46;92.51;98581.13;5027851;28;20049;-60
2022/01/11 01:13:24;;;;;;;21.05;11.85;;;;;;;-0.45;91.60;98585.44;5027003;28;20583;-60
2022/01/11 01:15:56;;;;;;;22.83;10.43;;;;;;;-0.65;92.09;98588.25;5025981;28;20072;-60
2022/01/11 01:18:47;;;;;;;32.10;10.85;;;;;;;-0.46;91.37;98592.63;5022659;28;20054;-60
2022/01/11 01:21:15;;;;;;;22.10;11.05;;;;;;;-0.37;91.74;98596.19;5026802;28;20077;-59
2022/01/11 01:23:42;;;;;;;20.80;10.73;;;;;;;-0.34;90.88;98600.38;5028960;28;20041;-59
2022/01/11 01:26:09;;;;;;;18.88;10.07;;;;;;;-0.30;90.46;98583.94;5029403;28;20063;-59
2022/01/11 01:28:35;;;;;;;20.98;12.10;;;;;;;-0.42;91.32;98595.78;5027766;28;20045;-58
2022/01/11 01:31:02;;;;;;;29.15;11.68;;;;;;;-0.39;92.43;98600.81;5026529;28;20037;-57
2022/01/11 01:33:32;;;;;;;20.35;10.73;;;;;;;-0.40;92.01;98591.19;5026666;28;20045;-59
2022/01/11 01:36:02;;;;;;;23.38;10.60;;;;;;;-0.37;92.65;98606.00;5027406;28;20045;-59
2022/01/11 01:38:32;;;;;;;19.92;10.13;;;;;;;-0.41;91.48;98598.31;5025673;28;20065;-57
2022/01/11 01:41:12;;;;;;;25.10;12.88;;;;;;;-0.39;92.64;98595.50;5024328;28;20444;-59
2022/01/11 01:43:39;;;;;;;23.55;12.13;;;;;;;-0.46;91.73;98599.75;5023145;28;20500;-60
2022/01/11 01:46:06;;;;;;;25.17;12.07;;;;;;;-0.70;91.79;98606.50;5026562;28;20045;-60
2022/01/11 01:48:35;;;;;;;25.88;11.65;;;;;;;-0.75;91.81;98603.41;5019489;28;20555;-60
2022/01/11 01:51:03;;;;;;;25.27;12.23;;;;;;;-0.66;92.79;98605.22;5026346;28;20042;-59
2022/01/11 01:53:30;;;;;;;22.92;11.63;;;;;;;-0.69;92.57;98606.34;5018861;28;20547;-59
2022/01/11 01:55:57;;;;;;;27.52;12.98;;;;;;;-0.81;93.16;98613.66;5025179;28;20037;-59
2022/01/11 01:58:25;;;;;;;28.08;12.18;;;;;;;-0.73;93.75;98612.09;5026395;28;20049;-60
2022/01/11 02:00:55;;;;;;;27.10;13.63;;;;;;;-0.71;93.74;98618.94;5024597;28;20045;-60
2022/01/11 02:03:26;;;;;;;27.23;12.48;;;;;;;-0.63;93.75;98623.50;5026307;28;20091;-59
2022/01/11 02:05:55;;;;;;;23.98;12.43;;;;;;;-0.77;92.98;98622.22;5026504;28;20049;-60
2022/01/11 02:08:23;;;;;;;21.05;12.00;;;;;;;-1.01;92.92;98612.09;5026244;28;20051;-59
2022/01/11 02:10:50;;;;;;;23.48;12.60;;;;;;;-0.96;93.00;98613.31;5027291;28;20067;-59
2022/01/11 02:13:16;;;;;;;24.35;12.70;;;;;;;-0.87;93.54;98616.94;5026582;28;20336;-59
2022/01/11 02:15:45;;;;;;;23.63;11.75;;;;;;;-0.60;94.28;98615.25;5026291;28;20045;-60
2022/01/11 02:18:19;;;;;;;20.88;10.88;;;;;;;-0.68;93.32;98616.00;5025571;28;20041;-60
2022/01/11 02:20:50;;;;;;;21.13;10.05;;;;;;;-0.69;93.71;98617.00;5025617;28;20412;-60
2022/01/11 02:23:25;;;;;;;20.60;11.13;;;;;;;-0.80;92.67;98614.50;5025643;28;20046;-60
2022/01/11 02:25:53;;;;;;;25.42;12.63;;;;;;;-0.83;94.61;98618.31;5024947;28;20053;-60
2022/01/11 02:28:22;;;;;;;26.73;13.50;;;;;;;-0.99;94.06;98616.25;5026763;28;20048;-60
2022/01/11 02:30:51;;;;;;;29.05;14.55;;;;;;;-0.88;94.79;98619.72;5025411;28;20122;-60
2022/01/11 02:33:34;;;;;;;29.95;13.43;;;;;;;-0.97;93.85;98619.63;5026607;28;20045;-60
2022/01/11 02:36:24;;;;;;;22.90;12.75;;;;;;;-0.97;93.90;98626.75;5024835;28;20099;-59
2022/01/11 02:38:53;;;;;;;21.55;11.45;;;;;;;-0.92;93.93;98621.88;5024403;28;20042;-59
2022/01/11 02:41:21;;;;;;;21.98;11.02;;;;;;;-0.86;93.89;98623.06;5025368;28;20053;-56
2022/01/11 02:43:49;;;;;;;21.27;10.32;;;;;;;-0.89;93.54;98634.84;5025150;28;20636;-58
2022/01/11 02:46:20;;;;;;;22.00;11.00;;;;;;;-0.99;93.75;98624.25;5025992;28;20107;-60
2022/01/11 02:48:51;;;;;;;21.25;11.05;;;;;;;-0.97;94.00;98624.94;5024998;28;20045;-59
2022/01/11 02:51:17;;;;;;;22.23;11.63;;;;;;;-1.01;94.72;98622.72;5024298;28;20037;-59
2022/01/11 02:53:50;;;;;;;24.65;12.02;;;;;;;-1.13;93.67;98622.06;5037347;28;20052;-59
2022/01/11 02:56:18;;;;;;;30.30;13.10;;;;;;;-1.13;94.38;98620.25;5026145;28;20041;-59
2022/01/11 02:58:45;;;;;;;26.98;11.95;;;;;;;-1.13;94.24;98616.75;5020896;28;20822;-59
2022/01/11 03:01:12;;;;;;;26.88;13.23;;;;;;;-1.16;93.93;98614.38;5022826;28;20095;-58
2022/01/11 03:03:40;;;;;;;22.45;11.75;;;;;;;-1.13;94.37;98617.59;5028101;28;20095;-59
2022/01/11 03:06:07;;;;;;;21.45;11.43;;;;;;;-1.13;94.53;98617.59;5029814;28;20038;-59
2022/01/11 03:08:43;;;;;;;23.13;12.40;;;;;;;-1.23;94.16;98616.78;5008395;28;20095;-59
2022/01/11 03:11:15;;;;;;;24.70;11.93;;;;;;;-1.23;94.18;98622.94;5024593;28;20079;-59
2022/01/11 03:13:44;;;;;;;26.00;12.73;;;;;;;-1.36;94.71;98625.91;5021127;28;20061;-59
2022/01/11 03:16:13;;;;;;;28.60;13.38;;;;;;;-1.33;94.85;98616.84;5019592;28;20049;-59
2022/01/11 03:18:39;;;;;;;29.10;13.75;;;;;;;-1.27;94.52;98621.56;5024977;28;20052;-59
2022/01/11 03:21:07;;;;;;;26.27;12.00;;;;;;;-1.21;95.33;98620.16;5025744;28;20087;-59
2022/01/11 03:23:34;;;;;;;27.40;13.07;;;;;;;-0.95;95.61;98622.97;5024045;28;20548;-60
2022/01/11 03:26:02;;;;;;;30.77;14.70;;;;;;;-1.04;94.82;98621.19;5024189;28;20072;-59
2022/01/11 03:28:31;;;;;;;29.58;13.65;;;;;;;-1.24;93.53;98629.25;5023404;28;20042;-60
2022/01/11 03:30:59;;;;;;;25.52;11.93;;;;;;;-1.30;94.16;98627.16;5020453;28;20038;-60
2022/01/11 03:33:25;;;;;;;26.00;13.23;;;;;;;-1.46;93.71;98633.09;5019964;28;20050;-59
2022/01/11 03:35:52;;;;;;;19.45;10.82;;;;;;;-1.49;93.86;98625.38;5020663;28;20092;-59
2022/01/11 03:38:22;;;;;;;24.52;12.23;;;;;;;-1.46;93.93;98636.59;5020547;28;20056;-59
2022/01/11 03:40:55;;;;;;;24.67;12.02;;;;;;;-1.45;94.52;98638.25;5020349;28;20048;-60
2022/01/11 03:43:22;;;;;;;23.13;11.98;;;;;;;-1.38;94.66;98635.84;5021360;28;20064;-58
2022/01/11 03:45:50;;;;;;;27.73;12.68;;;;;;;-1.38;94.45;98640.31;5029558;28;20053;-60
2022/01/11 03:48:18;;;;;;;23.73;12.07;;;;;;;-1.40;94.63;98642.31;5024457;28;20092;-60
2022/01/11 03:50:53;;;;;;;23.75;11.88;;;;;;;-1.39;94.83;98641.31;5024832;28;20037;-60
2022/01/11 03:53:48;;;;;;;29.20;12.18;;;;;;;-1.23;94.67;98644.22;5024427;28;20137;-59
2022/01/11 03:56:21;;;;;;;27.67;12.15;;;;;;;-1.27;94.48;98652.59;5024188;28;20049;-59
2022/01/11 03:58:55;;;;;;;26.13;13.48;;;;;;;-1.21;94.90;98644.06;5024133;28;20121;-60
2022/01/11 04:01:22;;;;;;;30.65;12.75;;;;;;;-1.32;94.18;98651.22;5027144;28;20049;-60
2022/01/11 04:03:50;;;;;;;30.67;12.20;;;;;;;-1.26;94.38;98644.50;5028681;28;20060;-59
2022/01/11 04:06:17;;;;;;;29.38;13.05;;;;;;;-1.08;94.53;98643.72;5029477;28;20041;-60
2022/01/11 04:08:45;;;;;;;32.88;14.23;;;;;;;-1.02;94.79;98653.81;5029904;28;20436;-59
2022/01/11 04:11:14;;;;;;;31.80;14.63;;;;;;;-0.82;94.62;98643.06;5043446;28;20152;-58
2022/01/11 04:13:41;;;;;;;26.52;14.13;;;;;;;-0.99;93.24;98644.69;5028113;28;20046;-60
2022/01/11 04:16:09;;;;;;;28.48;12.68;;;;;;;-1.14;93.42;98653.13;5028839;28;20140;-60
2022/01/11 04:18:35;;;;;;;29.13;12.65;;;;;;;-0.99;93.60;98650.81;5048338;28;20041;-58
2022/01/11 04:21:04;;;;;;;26.13;13.80;;;;;;;-0.98;93.58;98649.88;5048034;28;20052;-59
2022/01/11 04:23:33;;;;;;;26.38;13.60;;;;;;;-1.02;93.96;98647.63;5048881;28;20492;-60
2022/01/11 04:26:00;;;;;;;22.15;12.43;;;;;;;-0.95;93.50;98638.09;5047993;28;20041;-59
2022/01/11 04:28:29;;;;;;;27.58;14.25;;;;;;;-0.73;93.33;98646.69;5031852;28;20049;-60
2022/01/11 04:31:00;;;;;;;30.15;14.75;;;;;;;-0.81;94.12;98645.59;5028005;28;20555;-60
2022/01/11 04:33:29;;;;;;;36.20;16.27;;;;;;;-0.83;93.51;98652.03;5028269;28;20416;-60
2022/01/11 04:35:57;;;;;;;34.60;15.77;;;;;;;-0.84;93.12;98651.22;5027619;28;20053;-59
2022/01/11 04:38:28;;;;;;;39.65;15.73;;;;;;;-0.80;93.38;98652.56;5027951;28;20520;-59
2022/01/11 04:40:55;;;;;;;38.63;16.25;;;;;;;-0.62;92.64;98651.81;5027401;28;20049;-60
2022/01/11 04:43:24;;;;;;;35.22;14.80;;;;;;;-0.80;92.76;98654.41;5027900;28;20057;-60
2022/01/11 04:45:50;;;;;;;37.97;15.38;;;;;;;-0.81;93.17;98656.22;5028862;28;20088;-60
2022/01/11 04:48:18;;;;;;;36.95;16.63;;;;;;;-0.73;94.17;98657.31;5028945;28;20037;-59
2022/01/11 04:50:47;;;;;;;41.22;16.60;;;;;;;-0.79;93.96;98659.59;5027739;28;20069;-58
2022/01/11 04:53:16;;;;;;;40.80;16.35;;;;;;;-0.84;93.31;98669.00;5027257;28;20045;-60
2022/01/11 04:55:43;;;;;;;42.85;17.00;;;;;;;-0.96;92.96;98677.13;5028322;28;20056;-60
2022/01/11 04:58:10;;;;;;;38.45;17.33;;;;;;;-1.03;93.80;98676.06;5028264;28;20033;-58
2022/01/11 05:00:36;;;;;;;42.13;16.15;;;;;;;-0.94;94.37;98669.88;5026356;28;20532;-60
2022/01/11 05:03:03;;;;;;;42.42;17.88;;;;;;;-0.88;94.39;98678.25;5028804;28;20128;-59
2022/01/11 05:05:30;;;;;;;46.17;17.23;;;;;;;-0.90;94.45;98681.03;5025292;28;20069;-60
2022/01/11 05:07:58;;;;;;;36.08;16.33;;;;;;;-0.97;93.90;98680.78;5027271;28;20042;-60
2022/01/11 05:10:25;;;;;;;41.90;17.58;;;;;;;-0.98;93.75;98675.59;5031218;28;20123;-60
2022/01/11 05:12:52;;;;;;;39.25;17.35;;;;;;;-0.95;94.29;98677.97;5046506;28;20045;-58
2022/01/11 05:15:20;;;;;;;41.50;16.45;;;;;;;-0.99;93.68;98684.56;5040689;28;20406;-60
2022/01/11 05:17:48;;;;;;;43.30;16.50;;;;;;;-1.10;93.34;98681.09;5027650;28;20041;-60
2022/01/11 05:20:16;;;;;;;35.15;16.15;;;;;;;-1.26;93.57;98683.53;5026857;28;20045;-60
2022/01/11 05:22:44;;;;;;;47.50;18.27;;;;;;;-1.36;94.33;98689.69;5027009;28;20057;-59
2022/01/11 05:25:14;;;;;;;41.65;17.40;;;;;;;-1.37;94.52;98685.34;5027354;28;20048;-60
2022/01/11 05:27:41;;;;;;;43.35;17.05;;;;;;;-1.35;94.51;98690.53;5026084;28;20045;-60
2022/01/11 05:30:10;;;;;;;52.20;17.77;;;;;;;-1.41;94.39;98691.13;5026260;28;20068;-60
2022/01/11 05:32:36;;;;;;;46.63;16.88;;;;;;;-1.35;95.12;98688.72;5027519;28;20037;-60
2022/01/11 05:35:06;;;;;;;52.40;18.50;;;;;;;-1.33;95.53;98696.56;5026898;28;20051;-60
2022/01/11 05:37:33;;;;;;;44.72;17.27;;;;;;;-1.40;94.80;98704.22;5026221;28;20058;-58
2022/01/11 05:40:00;;;;;;;48.97;17.63;;;;;;;-1.38;94.56;98702.28;5026741;28;20057;-59
2022/01/11 05:42:27;;;;;;;48.05;17.88;;;;;;;-1.21;95.70;98699.88;5026074;28;20087;-58
2022/01/11 05:44:54;;;;;;;42.45;16.27;;;;;;;-1.30;94.82;98701.56;5027999;28;20041;-60
2022/01/11 05:47:22;;;;;;;44.55;17.83;;;;;;;-1.25;95.02;98704.63;5025475;28;20048;-59
2022/01/11 05:49:50;;;;;;;43.92;17.85;;;;;;;-1.22;94.66;98707.00;5026237;28;20041;-59
2022/01/11 05:52:17;;;;;;;43.88;17.73;;;;;;;-1.24;94.81;98710.78;5027419;28;20053;-59
2022/01/11 05:54:44;;;;;;;39.90;15.90;;;;;;;-1.22;94.73;98722.97;5026031;28;20041;-60
2022/01/11 05:57:11;;;;;;;42.78;16.77;;;;;;;-1.23;94.40;98721.28;5025763;28;20045;-59
2022/01/11 05:59:39;;;;;;;40.50;17.98;;;;;;;-1.28;94.34;98723.53;5025774;28;20037;-60
2022/01/11 06:02:05;;;;;;;50.97;18.33;;;;;;;-1.21;94.64;98721.16;5026311;28;20049;-59
2022/01/11 06:04:32;;;;;;;51.25;17.58;;;;;;;-1.19;95.20;98730.66;5025550;28;20647;-59
2022/01/11 06:06:59;;;;;;;51.03;18.48;;;;;;;-1.03;95.42;98728.38;5023887;28;20042;-59
2022/01/11 06:09:27;;;;;;;49.67;19.20;;;;;;;-1.03;95.98;98729.22;5031371;28;20132;-59
2022/01/11 06:11:56;;;;;;;50.50;18.60;;;;;;;-1.10;94.50;98723.63;5022641;28;20565;-60
2022/01/11 06:14:23;;;;;;;55.00;20.80;;;;;;;-1.08;95.27;98731.47;5024356;28;20144;-60
2022/01/11 06:16:51;;;;;;;49.40;19.90;;;;;;;-1.06;94.93;98740.16;5023947;28;20757;-60
2022/01/11 06:19:17;;;;;;;50.90;18.60;;;;;;;-0.95;95.18;98737.31;5024028;28;20037;-60
2022/01/11 06:21:59;;;;;;;53.22;19.27;;;;;;;-0.74;95.17;98738.09;5025689;28;20050;-60
2022/01/11 06:24:26;;;;;;;42.17;18.83;;;;;;;-1.01;94.07;98731.72;5024651;28;20067;-60
2022/01/11 06:26:53;;;;;;;52.05;19.52;;;;;;;-1.14;94.25;98740.03;5025408;28;20045;-60
2022/01/11 06:29:20;;;;;;;41.55;17.60;;;;;;;-1.15;94.41;98746.31;5025768;28;20044;-60
2022/01/11 06:31:46;;;;;;;40.65;17.98;;;;;;;-1.10;94.62;98746.72;5027073;28;20156;-60
2022/01/11 06:34:13;;;;;;;42.08;18.17;;;;;;;-0.88;95.96;98747.38;5026835;28;20095;-59
2022/01/11 06:36:39;;;;;;;48.90;18.40;;;;;;;-0.79;95.43;98754.47;5024515;28;20452;-60
2022/01/11 06:39:06;;;;;;;44.15;18.45;;;;;;;-0.80;95.08;98750.97;5026751;28;20065;-61
2022/01/11 06:41:35;;;;;;;45.88;20.00;;;;;;;-0.67;95.09;98747.16;5025280;28;20042;-60
2022/01/11 06:44:06;;;;;;;57.13;22.17;;;;;;;-0.58;94.95;98762.28;5025360;28;20053;-60
2022/01/11 06:46:33;;;;;;;51.58;22.15;;;;;;;-0.55;94.63;98758.47;5017607;28;20056;-59
2022/01/11 06:49:01;;;;;;;54.70;20.88;;;;;;;-0.44;94.78;98762.78;5026983;28;20041;-60
2022/01/11 06:51:28;;;;;;;48.67;20.15;;;;;;;-0.72;93.80;98760.91;5025040;28;20052;-59
2022/01/11 06:53:55;;;;;;;53.83;25.83;;;;;;;-0.89;93.62;98767.81;5026229;28;20065;-59
2022/01/11 06:56:22;;;;;;;90.35;41.00;;;;;;;-0.93;94.57;98761.94;5023935;28;20129;-60
2022/01/11 06:58:53;;;;;;;129.65;56.63;;;;;;;-0.98;94.36;98766.00;5023546;28;20041;-59
2022/01/11 07:01:21;;;;;;;218.50;93.40;;;;;;;-0.73;95.95;98772.53;5023599;28;20288;-60
2022/01/11 07:03:50;;;;;;;76.38;32.17;;;;;;;-0.78;95.05;98764.13;5024690;28;20046;-59
2022/01/11 07:06:25;;;;;;;70.05;28.92;;;;;;;-0.82;94.17;98770.72;5024668;28;20051;-58
2022/01/11 07:08:52;;;;;;;78.60;33.83;;;;;;;-0.94;94.17;98770.91;5024227;28;20579;-59
2022/01/11 07:11:23;;;;;;;74.75;32.85;;;;;;;-0.86;95.31;98779.97;5024799;28;20060;-59
2022/01/11 07:13:51;;;;;;;82.50;34.75;;;;;;;-0.69;95.13;98779.25;5024124;28;20570;-60
2022/01/11 07:16:18;;;;;;;69.20;25.55;;;;;;;-0.56;95.16;98789.56;5025732;28;20042;-60
2022/01/11 07:18:47;;;;;;;63.97;27.42;;;;;;;-0.54;94.78;98789.41;5024630;28;20103;-59
2022/01/11 07:21:15;;;;;;;86.57;38.67;;;;;;;-0.69;93.69;98789.91;5024310;28;20041;-59
2022/01/11 07:23:41;;;;;;;65.07;27.38;;;;;;;-0.86;94.41;98791.47;5026073;28;20045;-60
2022/01/11 07:26:09;;;;;;;60.60;22.05;;;;;;;-1.05;94.32;98797.66;5021467;28;20065;-60
2022/01/11 07:28:36;;;;;;;69.03;23.05;;;;;;;-0.92;95.44;98800.03;5033591;28;20049;-60
2022/01/11 07:31:08;;;;;;;51.78;20.58;;;;;;;-0.89;95.07;98799.72;5026697;28;20369;-60
2022/01/11 07:33:41;;;;;;;56.95;22.02;;;;;;;-0.85;94.91;98806.44;5011221;28;20049;-63
2022/01/11 07:36:08;;;;;;;50.75;20.00;;;;;;;-0.82;94.66;98806.16;5024100;28;20049;-62
2022/01/11 07:38:38;;;;;;;47.67;20.10;;;;;;;-0.75;95.31;98802.91;5026215;28;20053;-63
2022/01/11 07:41:11;;;;;;;49.25;20.10;;;;;;;-0.72;94.58;98810.59;5042567;28;20495;-62
2022/01/11 07:43:52;;;;;;;56.13;21.63;;;;;;;-0.76;94.68;98810.06;5028970;28;20107;-63
2022/01/11 07:46:23;;;;;;;50.10;20.83;;;;;;;-0.53;95.45;98815.03;5025851;28;20045;-62
2022/01/11 07:48:52;;;;;;;57.50;21.23;;;;;;;-0.47;94.41;98816.28;5025586;28;20046;-63
2022/01/11 07:51:20;;;;;;;51.90;19.85;;;;;;;-0.46;94.63;98815.28;5026522;28;20828;-63
2022/01/11 07:53:47;;;;;;;47.83;20.67;;;;;;;-0.46;94.22;98817.94;5026419;28;20044;-62
2022/01/11 07:56:18;;;;;;;56.87;20.20;;;;;;;-0.62;93.80;98822.06;5025507;28;20045;-62
2022/01/11 07:58:46;;;;;;;41.80;19.35;;;;;;;-0.60;94.04;98824.56;5041115;28;20056;-63
2022/01/11 08:01:16;;;;;;;50.53;19.25;;;;;;;-0.57;93.61;98832.28;5027634;28;20056;-63
2022/01/11 08:03:47;;;;;;;47.35;20.10;;;;;;;-0.63;94.05;98830.19;5024943;28;20046;-63
2022/01/11 08:06:34;;;;;;;53.92;21.45;;;;;;;-0.69;94.40;98827.13;5037822;28;20137;-62
2022/01/11 08:09:10;;;;;;;55.22;21.13;;;;;;;-0.69;94.78;98827.13;5026582;28;20052;-62
2022/01/11 08:11:37;;;;;;;64.50;21.98;;;;;;;-0.70;94.98;98836.06;5028683;28;20116;-63
2022/01/11 08:14:04;;;;;;;63.55;23.40;;;;;;;-0.65;94.29;98835.66;5030607;28;20057;-63
2022/01/11 08:16:33;;;;;;;57.28;22.27;;;;;;;-0.66;94.30;98832.16;5022671;28;20049;-62
2022/01/11 08:19:05;;;;;;;69.43;26.52;;;;;;;-0.60;94.94;98837.88;5040830;28;20049;-62
2022/01/11 08:21:32;;;;;;;52.22;21.38;;;;;;;-0.49;94.56;98843.03;5026103;28;20424;-62
2022/01/11 08:23:59;;;;;;;56.80;22.73;;;;;;;-0.45;94.44;98847.09;5037405;28;20752;-63
2022/01/11 08:26:27;;;;;;;59.00;22.00;;;;;;;-0.29;94.59;98848.31;5025102;28;20161;-62
2022/01/11 08:28:54;;;;;;;60.10;23.85;;;;;;;-0.10;94.87;98851.88;5050489;28;20143;-62
2022/01/11 08:31:21;;;;;;;57.25;24.38;;;;;;;0.05;94.96;98857.56;5031076;28;20049;-62
2022/01/11 08:33:52;;;;;;;53.35;23.63;;;;;;;0.05;93.01;98846.91;5051674;28;20057;-61
2022/01/11 08:36:19;;;;;;;53.22;22.42;;;;;;;-0.01;92.68;98851.00;5030065;28;20034;-64
2022/01/11 08:38:46;;;;;;;48.65;21.33;;;;;;;-0.11;93.04;98858.19;5018930;28;20133;-66
2022/01/11 08:41:13;;;;;;;43.63;19.70;;;;;;;-0.19;93.04;98862.41;5024254;28;20618;-65
2022/01/11 08:43:40;;;;;;;48.92;22.23;;;;;;;-0.27;93.53;98854.31;5024436;28;20168;-65
2022/01/11 08:46:07;;;;;;;50.00;21.73;;;;;;;-0.35;93.54;98859.53;5035734;28;20045;-64
2022/01/11 08:48:53;;;;;;;49.70;21.05;;;;;;;-0.24;94.01;98862.03;5016578;28;20538;-65
2022/01/11 08:51:19;;;;;;;45.70;22.38;;;;;;;-0.12;93.92;98856.53;5030033;28;20065;-64
2022/01/11 08:53:46;;;;;;;51.38;22.48;;;;;;;-0.09;93.07;98853.53;5037350;28;20125;-64
2022/01/11 08:56:17;;;;;;;49.53;22.52;;;;;;;-0.01;93.72;98861.63;5031840;28;20045;-65
2022/01/11 08:58:45;;;;;;;48.35;21.73;;;;;;;0.06;93.65;98865.41;5041121;28;20041;-65
2022/01/11 09:01:16;;;;;;;51.50;22.48;;;;;;;0.02;92.54;98865.84;5037211;28;20045;-62
2022/01/11 09:03:44;;;;;;;46.08;22.63;;;;;;;0.13;93.00;98865.66;5044886;28;20077;-62
2022/01/11 09:06:11;;;;;;;47.33;22.60;;;;;;;0.16;92.63;98864.50;5020270;28;20041;-64
2022/01/11 09:08:39;;;;;;;54.80;25.25;;;;;;;0.19;92.69;98869.56;5027144;28;20080;-64
2022/01/11 09:11:06;;;;;;;51.60;25.23;;;;;;;0.40;93.16;98868.47;5029531;28;20045;-64
2022/01/11 09:13:36;;;;;;;53.40;25.73;;;;;;;0.47;93.98;98874.84;5026092;28;20056;-63
2022/01/11 09:16:07;;;;;;;46.05;24.25;;;;;;;0.56;92.18;98873.13;5015559;28;20048;-64
2022/01/11 09:18:36;;;;;;;43.38;23.80;;;;;;;0.49;91.13;98883.56;5030491;28;20052;-63
2022/01/11 09:21:03;;;;;;;43.65;21.05;;;;;;;0.62;91.45;98878.69;5028614;28;20515;-64
2022/01/11 09:23:31;;;;;;;44.42;23.77;;;;;;;0.79;90.92;98884.22;5026967;28;20049;-64
2022/01/11 09:25:58;;;;;;;37.88;20.63;;;;;;;0.85;90.98;98878.25;5033272;28;20788;-64
2022/01/11 09:28:25;;;;;;;37.10;22.63;;;;;;;0.94;89.81;98875.66;5022369;28;20045;-64
2022/01/11 09:30:52;;;;;;;41.95;21.80;;;;;;;1.02;90.68;98879.25;5028018;28;20137;-64
2022/01/11 09:33:19;;;;;;;39.33;20.95;;;;;;;1.15;89.74;98873.53;5039671;28;20042;-64
2022/01/11 09:35:47;;;;;;;33.80;18.05;;;;;;;1.14;89.83;98873.69;5024373;28;20670;-64
2022/01/11 09:38:17;;;;;;;30.20;17.15;;;;;;;1.12;89.61;98881.00;5027224;28;20041;-63
2022/01/11 09:40:47;;;;;;;30.17;16.95;;;;;;;1.03;89.14;98880.94;5026861;28;20045;-65
2022/01/11 09:43:14;;;;;;;32.78;17.85;;;;;;;1.11;88.76;98876.66;5041989;28;20033;-65
2022/01/11 09:45:45;;;;;;;31.23;17.30;;;;;;;1.26;89.16;98879.63;5033539;28;20103;-64
2022/01/11 09:48:12;;;;;;;28.92;16.27;;;;;;;1.19;88.59;98879.41;5030175;28;20048;-64
2022/01/11 09:50:42;;;;;;;31.45;15.30;;;;;;;1.25;88.95;98881.44;5028429;28;20037;-63
2022/01/11 09:53:11;;;;;;;29.92;16.75;;;;;;;1.40;88.06;98888.91;5024576;28;20068;-63
2022/01/11 09:55:44;;;;;;;30.45;16.48;;;;;;;1.34;87.80;98882.38;5028997;28;20088;-65
2022/01/11 09:58:11;;;;;;;30.00;15.32;;;;;;;1.41;87.35;98886.06;5028108;28;20653;-65
2022/01/11 10:00:50;;;;;;;26.48;15.02;;;;;;;1.29;87.28;98892.66;5029924;28;20061;-63
2022/01/11 10:04:00;;;;;;;29.63;15.50;;;;;;;1.26;88.70;98893.78;5018101;28;20057;-65
2022/01/11 10:06:42;;;;;;;29.48;15.07;;;;;;;1.38;87.64;98897.06;5026866;28;20041;-63
2022/01/11 10:09:16;;;;;;;32.83;16.77;;;;;;;1.34;87.56;98895.72;5020259;28;20684;-64
2022/01/11 10:11:54;;;;;;;31.83;16.40;;;;;;;1.48;87.60;98904.16;5018922;28;20045;-65
2022/01/11 10:14:36;;;;;;;32.45;16.02;;;;;;;1.43;86.66;98894.78;5026105;28;20108;-64
2022/01/11 10:17:27;;;;;;;32.78;17.10;;;;;;;1.41;87.11;98902.09;5027757;28;20048;-64
2022/01/11 10:20:05;;;;;;;29.30;15.95;;;;;;;1.57;86.89;98895.19;5023993;28;20663;-65
2022/01/11 10:22:50;;;;;;;26.67;16.15;;;;;;;1.65;86.49;98897.06;5026091;28;20114;-65
2022/01/11 10:25:18;;;;;;;28.10;14.90;;;;;;;1.71;86.08;98904.47;5024786;28;20052;-63
2022/01/11 10:27:53;;;;;;;26.25;15.50;;;;;;;1.52;87.17;98898.31;5020578;28;20076;-62
2022/01/11 10:30:23;;;;;;;27.02;16.10;;;;;;;1.73;87.12;98898.97;5021772;28;20037;-62
2022/01/11 10:33:04;;;;;;;33.42;17.15;;;;;;;1.81;86.55;98899.84;5022853;28;20057;-65
2022/01/11 10:35:42;;;;;;;28.77;16.70;;;;;;;1.74;85.70;98889.97;5030676;28;20053;-61
2022/01/11 10:38:30;;;;;;;32.10;16.23;;;;;;;1.93;85.89;98897.78;5027803;28;20076;-62
2022/01/11 10:41:05;;;;;;;22.48;12.77;;;;;;;2.11;83.88;98888.84;5022310;28;20068;-63
2022/01/11 10:43:42;;;;;;;27.05;15.52;;;;;;;1.98;84.41;98889.28;5027812;28;20140;-63
2022/01/11 10:46:12;;;;;;;29.73;16.10;;;;;;;1.83;85.01;98889.03;5025027;28;20574;-63
2022/01/11 10:48:43;;;;;;;25.38;14.68;;;;;;;2.07;84.97;98884.81;5027731;28;20055;-62
2022/01/11 10:51:15;;;;;;;29.83;14.93;;;;;;;2.20;84.25;98887.88;5039883;28;20041;-63
2022/01/11 10:53:49;;;;;;;27.85;15.38;;;;;;;2.14;83.97;98887.69;5018512;28;20053;-63
2022/01/11 10:56:18;;;;;;;28.17;15.65;;;;;;;2.12;84.02;98890.53;5020608;28;20052;-63
2022/01/11 10:59:09;;;;;;;24.38;13.60;;;;;;;2.17;83.27;98890.03;5026233;28;20051;-63
2022/01/11 11:01:38;;;;;;;26.05;13.93;;;;;;;2.18;83.26;98894.41;5021811;28;20583;-63
2022/01/11 11:04:26;;;;;;;29.63;13.98;;;;;;;2.20;82.53;98892.38;5021805;28;20053;-62
2022/01/11 11:07:12;;;;;;;22.92;13.52;;;;;;;2.19;82.60;98885.38;5020285;28;20055;-62
2022/01/11 11:09:44;;;;;;;24.02;13.32;;;;;;;2.43;82.25;98881.13;5022202;28;20061;-63
2022/01/11 11:12:20;;;;;;;24.13;13.25;;;;;;;2.43;81.93;98881.13;5035418;28;20049;-62
2022/01/11 11:15:02;;;;;;;24.75;14.02;;;;;;;2.33;82.08;98886.59;5022107;28;20068;-61
2022/01/11 11:17:37;;;;;;;22.40;13.70;;;;;;;2.27;82.97;98880.06;5022046;28;20045;-61
2022/01/11 11:20:14;;;;;;;19.98;12.70;;;;;;;2.31;81.69;98880.56;5021460;28;20512;-62
2022/01/11 11:22:41;;;;;;;21.48;13.38;;;;;;;2.28;82.07;98878.25;5023139;28;20037;-62
2022/01/11 11:25:08;;;;;;;23.02;13.38;;;;;;;2.21;81.57;98880.69;5023711;28;20049;-62
2022/01/11 11:27:35;;;;;;;22.95;13.55;;;;;;;2.16;82.30;98881.19;5033483;28;20060;-63
2022/01/11 11:30:02;;;;;;;21.38;12.32;;;;;;;2.17;80.78;98882.00;5022408;28;20057;-63
2022/01/11 11:32:30;;;;;;;22.90;12.60;;;;;;;2.14;80.73;98882.34;5015351;28;20567;-64
2022/01/11 11:34:57;;;;;;;22.50;11.27;;;;;;;2.20;79.22;98885.22;5025491;28;20044;-64